Time;durP1;ratioP1;P1;durP2;ratioP2;P2;SDS_P1;SDS_P2;PMS_P1;PMS_P2;Temp;Humidity;BMP_temperature;BMP_pressure;BME280_temperature;BME280_humidity;BME280_pressure;Samples;Min_cycle;Max_cycle;Signal;HPM_P1;HPM_P2
2021/08/05 00:02:15;;;;;;;13.65;4.10;;;;;;;26.90;34.60;98618.97;6210548;23;20048;-75
2021/08/05 00:04:41;;;;;;;6.85;3.42;;;;;;;26.91;34.24;98625.28;6211178;23;20027;-75
2021/08/05 00:07:07;;;;;;;8.82;3.33;;;;;;;26.92;33.80;98626.91;6210927;23;20343;-75
2021/08/05 00:09:33;;;;;;;8.15;3.85;;;;;;;26.91;33.73;98617.03;6210842;23;20397;-75
2021/08/05 00:11:59;;;;;;;8.45;3.75;;;;;;;26.98;33.84;98606.75;6184387;23;20021;-76
2021/08/05 00:14:25;;;;;;;7.65;3.38;;;;;;;27.02;34.06;98611.50;6210970;23;20030;-75
2021/08/05 00:16:51;;;;;;;12.85;3.60;;;;;;;27.03;33.86;98593.13;6184809;23;20024;-74
2021/08/05 00:19:17;;;;;;;8.35;3.72;;;;;;;27.00;33.81;98582.63;6210708;23;20016;-75
2021/08/05 00:21:43;;;;;;;12.30;3.70;;;;;;;26.95;33.96;98569.66;6184165;23;20016;-75
2021/08/05 00:24:17;;;;;;;10.63;3.67;;;;;;;27.02;34.11;98580.50;6210447;23;20047;-75
2021/08/05 00:26:43;;;;;;;9.63;4.35;;;;;;;27.07;33.90;98580.56;6211212;23;20475;-74
2021/08/05 00:29:09;;;;;;;12.02;4.05;;;;;;;27.08;33.89;98579.47;6210438;23;20066;-72
2021/08/05 00:31:35;;;;;;;13.93;4.25;;;;;;;27.12;33.78;98577.97;6210851;23;20104;-74
2021/08/05 00:34:01;;;;;;;13.88;4.18;;;;;;;27.06;33.64;98576.16;6210675;23;20016;-75
2021/08/05 00:36:27;;;;;;;8.23;4.28;;;;;;;27.08;33.57;98595.94;6184366;23;20046;-74
2021/08/05 00:38:54;;;;;;;20.98;4.63;;;;;;;27.05;33.54;98597.28;6183823;23;20051;-75
2021/08/05 00:41:20;;;;;;;12.85;4.32;;;;;;;26.95;33.67;98575.16;6183927;23;20028;-74
2021/08/05 00:43:46;;;;;;;13.13;4.28;;;;;;;26.95;33.70;98569.66;6183751;23;20028;-75
2021/08/05 00:46:12;;;;;;;14.00;4.55;;;;;;;26.97;33.92;98569.41;6184107;23;20024;-74
2021/08/05 00:48:39;;;;;;;13.45;4.20;;;;;;;26.98;33.79;98574.66;6159589;23;20044;-76
2021/08/05 00:51:05;;;;;;;6.30;4.28;;;;;;;26.90;33.84;98560.53;6288415;22;20398;-75
2021/08/05 00:53:31;;;;;;;14.00;4.75;;;;;;;26.97;33.86;98581.25;6159227;23;20048;-76
2021/08/05 00:55:58;;;;;;;13.00;4.82;;;;;;;26.91;33.85;98564.94;6159342;23;20092;-75
2021/08/05 00:58:24;;;;;;;10.93;4.43;;;;;;;26.91;33.82;98560.28;6183895;23;20020;-75
2021/08/05 01:00:52;;;;;;;15.48;4.55;;;;;;;26.90;33.86;98568.75;6184218;23;20129;-75
2021/08/05 01:03:24;;;;;;;10.45;4.35;;;;;;;26.85;33.65;98586.78;6185062;23;20050;-76
2021/08/05 01:05:55;;;;;;;12.70;4.30;;;;;;;26.83;33.69;98560.69;6159989;23;20021;-75
2021/08/05 01:08:24;;;;;;;14.25;4.38;;;;;;;26.88;33.78;98572.56;6162317;23;20020;-76
2021/08/05 01:11:07;;;;;;;13.10;3.95;;;;;;;26.84;33.85;98565.91;6136270;23;20059;-76
2021/08/05 01:14:04;;;;;;;14.77;4.35;;;;;;;26.90;33.73;98571.50;6161500;23;20352;-75
2021/08/05 01:16:31;;;;;;;10.95;4.80;;;;;;;26.87;33.73;98562.69;6166352;23;20074;-76
2021/08/05 01:19:08;;;;;;;7.95;4.45;;;;;;;26.91;33.70;98570.41;6185269;23;20106;-76
2021/08/05 01:22:06;;;;;;;16.65;4.20;;;;;;;26.86;33.78;98580.22;6162851;23;20023;-76
2021/08/05 01:24:35;;;;;;;7.60;4.18;;;;;;;26.88;33.85;98575.31;6171857;23;20044;-75
2021/08/05 01:27:01;;;;;;;11.05;4.20;;;;;;;26.86;33.96;98572.00;6136043;23;20341;-76
2021/08/05 01:29:32;;;;;;;9.88;3.90;;;;;;;26.87;33.78;98581.88;6136545;23;20031;-76
2021/08/05 01:31:58;;;;;;;6.90;4.10;;;;;;;26.91;33.96;98595.09;6160435;23;20024;-74
2021/08/05 01:34:24;;;;;;;9.43;4.57;;;;;;;26.90;33.92;98596.19;6184965;23;20419;-76
2021/08/05 01:36:50;;;;;;;5.32;3.55;;;;;;;26.88;33.97;98586.28;6185382;23;20107;-74
2021/08/05 01:39:16;;;;;;;8.50;4.03;;;;;;;26.81;33.92;98596.56;6160227;23;20020;-77
2021/08/05 01:41:42;;;;;;;11.02;3.58;;;;;;;26.79;34.59;98593.25;6160600;23;20024;-75
2021/08/05 01:44:09;;;;;;;14.95;4.53;;;;;;;26.79;34.41;98600.66;6159825;23;20356;-77
2021/08/05 01:46:36;;;;;;;6.75;4.13;;;;;;;26.80;34.31;98597.66;6160474;23;20013;-77
2021/08/05 01:49:02;;;;;;;9.40;3.83;;;;;;;26.86;34.40;98593.94;6135845;23;20021;-75
2021/08/05 01:51:28;;;;;;;13.07;5.13;;;;;;;26.93;34.32;98610.25;6111154;23;20504;-76
2021/08/05 01:53:54;;;;;;;9.38;5.50;;;;;;;26.95;34.17;98604.50;6135739;23;20024;-74
2021/08/05 01:56:24;;;;;;;13.63;5.47;;;;;;;26.96;34.01;98608.88;6135477;23;20379;-76
2021/08/05 01:58:51;;;;;;;12.73;5.15;;;;;;;26.91;34.27;98612.38;6159888;23;20462;-75
2021/08/05 02:01:18;;;;;;;17.45;6.10;;;;;;;26.84;34.33;98611.69;6185103;23;20021;-74
2021/08/05 02:03:48;;;;;;;12.13;6.05;;;;;;;26.87;34.51;98608.47;6159501;23;20031;-76
2021/08/05 02:06:15;;;;;;;15.80;6.35;;;;;;;26.86;34.36;98599.41;6136754;23;20103;-75
2021/08/05 02:08:54;;;;;;;13.15;6.40;;;;;;;26.85;34.52;98603.25;6160401;23;20149;-74
2021/08/05 02:11:31;;;;;;;13.88;6.15;;;;;;;26.90;34.32;98607.16;6111760;23;20027;-75
2021/08/05 02:13:57;;;;;;;14.18;5.95;;;;;;;26.94;34.31;98619.28;6137799;23;20423;-75
2021/08/05 02:16:26;;;;;;;16.02;5.45;;;;;;;26.74;34.68;98638.91;6135568;23;20096;-76
2021/08/05 02:18:53;;;;;;;8.93;5.47;;;;;;;26.49;35.32;98652.97;6135496;23;20043;-78
2021/08/05 02:21:21;;;;;;;14.25;5.20;;;;;;;26.51;35.16;98657.09;6135850;23;20028;-77
2021/08/05 02:23:48;;;;;;;16.40;6.30;;;;;;;26.49;35.35;98650.22;6160532;23;20024;-76
2021/08/05 02:26:14;;;;;;;14.40;4.68;;;;;;;26.28;35.89;98663.44;6165105;23;20356;-78
2021/08/05 02:28:41;;;;;;;16.17;5.13;;;;;;;26.19;35.91;98667.66;6160655;23;20021;-76
2021/08/05 02:31:10;;;;;;;11.05;4.90;;;;;;;26.35;35.46;98644.16;6184856;23;20048;-77
2021/08/05 02:33:36;;;;;;;13.27;4.90;;;;;;;26.47;35.33;98646.88;6136324;23;20020;-76
2021/08/05 02:36:03;;;;;;;9.15;4.90;;;;;;;26.67;35.14;98639.09;6135629;23;20352;-77
2021/08/05 02:38:29;;;;;;;17.10;4.97;;;;;;;26.82;34.94;98630.31;6135428;23;20021;-76
2021/08/05 02:40:55;;;;;;;13.27;4.97;;;;;;;26.95;34.81;98634.66;6184514;23;20460;-76
2021/08/05 02:43:26;;;;;;;12.73;4.85;;;;;;;27.21;34.58;98625.84;6159569;23;20363;-76
2021/08/05 02:45:52;;;;;;;17.48;5.68;;;;;;;27.34;34.35;98609.06;6135461;23;20070;-76
2021/08/05 02:48:18;;;;;;;9.50;4.90;;;;;;;27.48;33.82;98600.47;6184550;23;20048;-76
2021/08/05 02:50:45;;;;;;;11.95;5.07;;;;;;;27.80;33.33;98576.00;6184015;23;20081;-75
2021/08/05 02:53:11;;;;;;;9.00;4.72;;;;;;;28.11;32.81;98588.22;6184461;23;20068;-75
2021/08/05 02:55:37;;;;;;;16.63;5.47;;;;;;;28.36;32.57;98578.63;6110584;23;20024;-76
2021/08/05 02:58:03;;;;;;;13.15;5.18;;;;;;;28.52;32.21;98584.09;6134274;23;20091;-80
2021/08/05 03:00:29;;;;;;;10.88;4.70;;;;;;;28.53;31.99;98585.75;6134910;23;20349;-82
2021/08/05 03:02:55;;;;;;;13.00;4.97;;;;;;;28.55;31.47;98593.75;6184446;22;20498;-79
2021/08/05 03:05:21;;;;;;;8.73;5.68;;;;;;;28.53;31.30;98635.22;6184557;23;20348;-84
2021/08/05 03:07:48;;;;;;;9.68;5.13;;;;;;;28.41;31.38;98683.19;6185104;23;20028;-84
2021/08/05 03:10:16;;;;;;;8.75;4.72;;;;;;;28.40;31.85;98678.75;6211195;23;20012;-79
2021/08/05 03:12:42;;;;;;;;;;;;;;;28.37;32.24;98662.78;6161377;23;20020;-79
2021/08/05 03:15:12;;;;;;;16.20;5.13;;;;;;;28.44;32.49;98652.44;6211234;23;19942;-80
2021/08/05 03:17:41;;;;;;;21.42;5.47;;;;;;;28.51;32.39;98670.41;6161538;22;20024;-86
2021/08/05 03:20:48;;;;;;;20.73;6.10;;;;;;;28.55;32.86;98640.50;6136310;23;20029;-88
2021/08/05 03:23:15;;;;;;;12.70;5.20;;;;;;;28.71;32.14;98614.81;6186134;23;20111;-82
2021/08/05 03:25:49;;;;;;;21.75;5.80;;;;;;;28.78;31.97;98606.38;6211794;23;20039;-91
2021/08/05 03:28:16;;;;;;;19.83;5.22;;;;;;;28.83;32.10;98600.09;6214253;23;20024;-85
2021/08/05 03:30:42;;;;;;;17.42;5.45;;;;;;;28.82;31.58;98603.94;6185690;23;20052;-86
2021/08/05 03:33:11;;;;;;;91.18;47.83;;;;;;;28.84;31.95;98608.06;6185373;23;20487;-82
2021/08/05 03:35:37;;;;;;;14.75;5.78;;;;;;;28.88;31.72;98631.22;6160362;23;20467;-80
2021/08/05 03:38:04;;;;;;;35.33;6.28;;;;;;;28.96;31.53;98650.03;6210800;23;20021;-77
2021/08/05 03:40:31;;;;;;;25.55;5.95;;;;;;;28.94;31.47;98656.88;6160223;23;20017;-76
2021/08/05 03:42:58;;;;;;;22.50;5.82;;;;;;;28.99;31.41;98665.19;6185605;23;20028;-82
2021/08/05 03:45:26;;;;;;;19.08;5.28;;;;;;;29.04;31.48;98668.03;6206519;23;20382;-86
2021/08/05 03:47:52;;;;;;;16.50;5.60;;;;;;;28.80;31.89;98698.53;6210883;23;20345;-80
2021/08/05 03:50:18;;;;;;;16.45;6.28;;;;;;;28.56;32.44;98716.38;6210716;23;20104;-80
2021/08/05 03:52:46;;;;;;;24.13;5.43;;;;;;;28.46;33.09;98779.47;6186486;23;20021;-84
2021/08/05 03:55:15;;;;;;;19.73;7.38;;;;;;;28.38;34.44;98796.41;6162158;23;20023;-82
2021/08/05 03:57:43;;;;;;;25.15;9.25;;;;;;;28.40;34.81;98794.22;6137683;23;20024;-85
2021/08/05 04:00:11;;;;;;;15.95;5.95;;;;;;;28.29;35.19;98799.56;6160810;23;20074;-83
2021/08/05 04:02:40;;;;;;;12.02;5.65;;;;;;;28.24;35.13;98790.38;6210794;23;20025;-78
2021/08/05 04:05:06;;;;;;;11.50;4.78;;;;;;;28.48;34.46;98778.16;6210659;23;20021;-76
2021/08/05 04:07:34;;;;;;;17.67;5.22;;;;;;;28.76;33.58;98781.81;6185316;23;20396;-78
2021/08/05 04:10:00;;;;;;;9.60;5.07;;;;;;;29.15;33.00;98763.38;6262987;22;20024;-75
2021/08/05 04:12:26;;;;;;;8.93;4.50;;;;;;;29.19;32.37;98772.78;6184548;23;20055;-77
2021/08/05 04:14:52;;;;;;;11.93;4.70;;;;;;;29.21;32.35;98761.50;6135909;23;20048;-77
2021/08/05 04:17:18;;;;;;;18.70;5.43;;;;;;;29.26;31.97;98756.03;6159937;23;20321;-78
2021/08/05 04:19:45;;;;;;;16.00;5.78;;;;;;;29.18;31.81;98756.50;6184561;23;20048;-78
2021/08/05 04:22:12;;;;;;;20.42;5.97;;;;;;;29.25;31.57;98740.59;6210903;23;20021;-79
2021/08/05 04:24:38;;;;;;;33.17;7.28;;;;;;;29.51;31.50;98739.78;6135259;23;20024;-76
2021/08/05 04:27:04;;;;;;;18.23;4.75;;;;;;;29.72;29.92;98740.84;6211732;23;20025;-76
2021/08/05 04:29:31;;;;;;;19.63;5.82;;;;;;;29.75;29.64;98733.94;6211530;23;20024;-80
2021/08/05 04:31:56;;;;;;;12.68;5.65;;;;;;;29.59;30.05;98712.88;6157930;23;20013;-78
2021/08/05 04:34:22;;;;;;;20.58;5.28;;;;;;;29.43;30.31;98715.47;6209380;23;20017;-79
2021/08/05 04:36:48;;;;;;;10.65;5.32;;;;;;;29.38;30.17;98704.41;6183133;23;20440;-83
2021/08/05 04:39:15;;;;;;;14.45;4.82;;;;;;;29.28;30.25;98696.06;6134321;23;20036;-81
2021/08/05 04:41:41;;;;;;;16.20;5.30;;;;;;;29.15;30.81;98701.97;6159612;23;20448;-82
2021/08/05 04:44:07;;;;;;;18.20;6.20;;;;;;;29.04;31.46;98706.56;6211850;23;20016;-78
2021/08/05 04:46:35;;;;;;;16.15;5.57;;;;;;;28.81;32.28;98677.34;6211336;23;20020;-78
2021/08/05 04:49:01;;;;;;;16.17;5.30;;;;;;;28.86;31.42;98671.09;6185469;23;20027;-78
2021/08/05 04:51:28;;;;;;;18.10;5.38;;;;;;;28.80;31.71;98643.50;6111216;23;20021;-79
2021/08/05 04:53:55;;;;;;;22.35;5.30;;;;;;;29.02;31.62;98629.75;6185911;23;20021;-78
2021/08/05 04:56:21;;;;;;;13.68;5.30;;;;;;;29.21;31.44;98612.84;6185499;23;20020;-79
2021/08/05 04:58:47;;;;;;;18.35;4.85;;;;;;;28.74;31.98;98526.31;6186677;23;20044;-78
2021/08/05 05:01:12;;;;;;;17.55;4.80;;;;;;;28.68;32.55;98562.25;6212104;23;20024;-79
2021/08/05 05:03:38;;;;;;;19.10;5.00;;;;;;;28.87;32.33;98592.97;6160911;23;20054;-79
2021/08/05 05:06:04;;;;;;;13.57;4.68;;;;;;;29.00;32.04;98562.34;6212005;23;20356;-79
2021/08/05 05:08:30;;;;;;;18.30;5.32;;;;;;;29.06;31.92;98565.94;6185231;23;20023;-81
2021/08/05 05:10:57;;;;;;;13.75;4.90;;;;;;;29.15;31.84;98598.25;6211573;23;20039;-80
2021/08/05 05:13:23;;;;;;;16.80;5.25;;;;;;;29.37;31.75;98595.38;6185061;23;20028;-80
2021/08/05 05:15:49;;;;;;;17.60;5.47;;;;;;;29.58;31.86;98601.06;6211327;23;20027;-80
2021/08/05 05:18:17;;;;;;;18.92;5.28;;;;;;;29.65;31.57;98613.53;6184833;23;20414;-80
2021/08/05 05:20:58;;;;;;;26.65;5.80;;;;;;;29.37;31.84;98605.56;6159356;23;20440;-78
2021/08/05 05:23:36;;;;;;;16.48;5.57;;;;;;;29.51;32.04;98623.28;6136971;23;20044;-79
2021/08/05 05:26:05;;;;;;;20.27;6.53;;;;;;;29.53;32.12;98623.88;6087176;23;20032;-79
2021/08/05 05:28:34;;;;;;;22.42;5.93;;;;;;;29.60;33.08;98624.50;6133526;23;20042;-79
2021/08/05 05:31:03;;;;;;;16.35;5.45;;;;;;;29.51;32.91;98634.31;6134913;22;20020;-78
2021/08/05 05:33:30;;;;;;;16.58;4.90;;;;;;;29.67;32.21;98658.13;6158902;23;20021;-80
2021/08/05 05:35:58;;;;;;;15.45;6.18;;;;;;;29.83;31.91;98661.84;6110528;23;20027;-81
2021/08/05 05:38:25;;;;;;;18.27;5.07;;;;;;;29.76;32.15;98650.25;6158413;23;20032;-80
2021/08/05 05:40:54;;;;;;;16.65;5.38;;;;;;;30.31;31.28;98665.47;6086873;23;20259;-78
2021/08/05 05:43:20;;;;;;;17.17;5.50;;;;;;;30.55;30.66;98670.56;6133188;23;20024;-76
2021/08/05 05:45:53;;;;;;;13.30;5.05;;;;;;;30.78;30.22;98644.47;6133524;23;20070;-84
2021/08/05 05:48:31;;;;;;;20.02;5.15;;;;;;;30.83;30.30;98664.59;6087580;23;20020;-80
2021/08/05 05:51:16;;;;;;;17.15;5.53;;;;;;;30.90;30.20;98678.97;6087171;23;20503;-79
2021/08/05 05:53:49;;;;;;;15.13;5.18;;;;;;;31.04;30.55;98673.78;6135103;23;20115;-79
2021/08/05 05:56:19;;;;;;;17.70;5.63;;;;;;;30.96;30.44;98655.00;6134406;23;20021;-79
2021/08/05 05:58:47;;;;;;;17.70;5.80;;;;;;;30.81;30.43;98685.31;6111140;23;20127;-79
2021/08/05 06:01:38;;;;;;;23.27;6.18;;;;;;;30.83;30.70;98686.69;6088474;23;20024;-81
2021/08/05 06:04:24;;;;;;;26.80;6.13;;;;;;;31.02;30.80;98687.00;6114734;23;20098;-81
2021/08/05 06:06:55;;;;;;;24.33;5.30;;;;;;;30.67;31.13;98718.06;6135557;23;20024;-80
2021/08/05 06:09:24;;;;;;;20.83;5.25;;;;;;;30.70;31.07;98700.97;6087729;23;20091;-82
2021/08/05 06:11:55;;;;;;;21.95;5.18;;;;;;;30.93;30.71;98716.25;6085280;23;20029;-80
2021/08/05 06:14:42;;;;;;;16.42;4.93;;;;;;;30.58;30.86;98714.13;6141141;23;20024;-83
2021/08/05 06:17:27;;;;;;;17.48;5.13;;;;;;;30.70;31.30;98695.44;6092263;23;20359;-82
2021/08/05 06:19:55;;;;;;;12.02;5.22;;;;;;;30.75;31.38;98694.66;6181632;23;20486;-80
2021/08/05 06:22:39;;;;;;;;;;;;;;;;;;;;;
2021/08/05 06:26:21;;;;;;;15.10;4.80;;;;;;;30.87;30.29;98711.81;6150157;23;20467;-83
2021/08/05 06:29:39;;;;;;;17.33;4.38;;;;;;;31.11;29.86;98690.91;6230367;23;20016;-79
2021/08/05 06:32:16;;;;;;;22.85;10.00;;;;;;;31.35;29.56;98682.16;6161045;23;20023;-81
2021/08/05 06:35:05;;;;;;;21.73;4.97;;;;;;;31.26;29.61;98690.13;6162493;23;20047;-82
2021/08/05 06:41:11;;;;;;;18.50;5.05;;;;;;;30.72;30.81;98707.84;6188419;23;20498;-81
2021/08/05 06:44:26;;;;;;;;;;;;;;;;;;;;;
2021/08/05 06:47:57;;;;;;;;;;;;;;;;;;;;;
2021/08/05 07:03:11;;;;;;;;;;;;;;;;;;;;;
2021/08/05 07:05:47;;;;;;;15.15;4.80;;;;;;;31.34;31.14;98699.81;6114292;23;20029;-82
2021/08/05 07:08:18;;;;;;;22.05;4.72;;;;;;;31.50;31.25;98704.25;6109436;23;20417;-82
2021/08/05 07:10:47;;;;;;;20.20;4.25;;;;;;;31.48;31.54;98719.44;6233307;23;20017;-81
2021/08/05 07:13:27;;;;;;;17.70;5.00;;;;;;;31.21;32.21;98690.91;6135388;23;20099;-82
2021/08/05 07:16:19;;;;;;;15.23;4.00;;;;;;;31.43;32.06;98709.22;6147015;23;20422;-81
2021/08/05 07:19:02;;;;;;;12.18;3.83;;;;;;;31.19;32.12;98708.88;6157124;23;20013;-81
2021/08/05 07:21:42;;;;;;;9.35;3.45;;;;;;;31.39;32.24;98731.03;6140425;23;20023;-81
2021/08/05 07:24:12;;;;;;;14.35;3.53;;;;;;;31.46;32.88;98691.28;6109873;23;20031;-84
2021/08/05 07:26:51;;;;;;;10.23;4.07;;;;;;;31.34;34.60;98713.63;6138550;23;20361;-84
2021/08/05 07:29:22;;;;;;;9.73;3.78;;;;;;;30.93;35.75;98721.78;6086889;23;20031;-82
2021/08/05 07:31:49;;;;;;;14.90;3.90;;;;;;;30.79;35.42;98704.06;6157854;23;20462;-85
2021/08/05 07:34:19;;;;;;;8.50;4.10;;;;;;;30.53;36.15;98700.31;6110751;23;20021;-82
2021/08/05 07:36:45;;;;;;;10.32;3.90;;;;;;;30.58;36.80;98730.69;6133883;23;20017;-83
2021/08/05 07:39:20;;;;;;;14.10;3.50;;;;;;;30.81;36.38;98729.47;6158172;23;20052;-83
2021/08/05 07:41:54;;;;;;;13.63;3.75;;;;;;;30.77;35.43;98717.28;6161401;22;20028;-84
2021/08/05 07:44:25;;;;;;;13.10;3.90;;;;;;;31.08;35.22;98708.03;6128282;23;20021;-82
2021/08/05 07:46:52;;;;;;;10.15;3.15;;;;;;;31.41;34.33;98716.97;6104473;23;20017;-83
2021/08/05 07:49:25;;;;;;;9.68;3.40;;;;;;;31.41;34.57;98708.69;6105757;23;20389;-82
2021/08/05 07:52:04;;;;;;;9.25;3.30;;;;;;;31.19;35.12;98706.94;6082982;23;20021;-83
2021/08/05 07:54:48;;;;;;;14.13;3.60;;;;;;;31.41;34.90;98690.16;6092255;23;20025;-84
2021/08/05 07:57:30;;;;;;;10.05;3.20;;;;;;;31.65;34.97;98701.50;6082838;23;20021;-83
2021/08/05 08:00:39;;;;;;;;;;;;;;;;;;;;;
2021/08/05 08:03:16;;;;;;;21.07;3.87;;;;;;;32.07;35.30;98708.69;6111628;23;20024;-79
2021/08/05 08:06:31;;;;;;;9.48;3.63;;;;;;;32.11;34.56;98697.91;6130999;23;20025;-80
2021/08/05 08:13:00;;;;;;;;;;;;;;;;;;;;;
2021/08/05 08:16:18;;;;;;;;;;;;;;;;;;;;;
2021/08/05 08:19:43;;;;;;;19.17;3.45;;;;;;;31.85;35.96;98688.78;6210226;22;20094;-82
2021/08/05 08:22:47;;;;;;;13.23;4.50;;;;;;;32.25;35.70;98695.38;6181358;22;20022;-80
2021/08/05 08:26:08;;;;;;;;;;;;;;;;;;;;;
2021/08/05 08:28:54;;;;;;;7.75;3.65;;;;;;;32.77;34.18;98678.34;6222345;22;20031;-80
2021/08/05 08:31:23;;;;;;;11.82;3.85;;;;;;;33.11;33.66;98689.53;6224096;22;20020;-79
2021/08/05 08:33:53;;;;;;;14.10;3.80;;;;;;;33.40;33.53;98697.13;6220667;22;20615;-80
2021/08/05 08:36:20;;;;;;;6.15;3.58;;;;;;;33.78;32.93;98703.78;6245138;22;20020;-81
2021/08/05 08:38:47;;;;;;;7.60;3.08;;;;;;;33.96;32.22;98695.84;6170475;22;20016;-81
2021/08/05 08:41:24;;;;;;;15.00;3.58;;;;;;;34.26;32.18;98691.97;6196116;22;20471;-80
2021/08/05 08:43:53;;;;;;;7.47;3.50;;;;;;;33.90;32.34;98695.06;6131090;23;20048;-79
2021/08/05 08:46:30;;;;;;;9.52;3.05;;;;;;;33.71;32.43;98702.47;6197114;23;20029;-78
2021/08/05 08:49:05;;;;;;;8.60;3.38;;;;;;;33.31;32.76;98676.69;6148948;23;20021;-78
2021/08/05 08:51:33;;;;;;;6.47;3.30;;;;;;;32.89;33.63;98675.25;6122654;23;20053;-82
2021/08/05 08:54:06;;;;;;;4.80;3.05;;;;;;;32.34;34.50;98685.41;6099383;23;20022;-81
2021/08/05 08:56:37;;;;;;;12.95;3.42;;;;;;;32.58;34.21;98694.75;6123614;23;20071;-82
2021/08/05 08:59:05;;;;;;;4.47;3.05;;;;;;;32.78;33.88;98679.19;6122206;23;20348;-81
2021/08/05 09:01:39;;;;;;;19.90;3.45;;;;;;;33.05;33.54;98668.53;6122806;23;20401;-80
2021/08/05 09:04:09;;;;;;;7.78;3.30;;;;;;;33.47;33.15;98691.28;6101740;23;20031;-82
2021/08/05 09:06:40;;;;;;;7.13;3.47;;;;;;;33.51;32.45;98682.13;6124051;23;20021;-80
2021/08/05 09:09:08;;;;;;;6.00;3.30;;;;;;;33.05;32.71;98674.06;6075522;23;20432;-80
2021/08/05 09:11:37;;;;;;;5.13;2.95;;;;;;;33.07;32.81;98663.53;6098349;23;20150;-78
2021/08/05 09:14:10;;;;;;;3.53;3.03;;;;;;;33.49;32.67;98667.72;6100571;23;20025;-80
2021/08/05 09:16:41;;;;;;;7.78;3.50;;;;;;;33.79;32.28;98663.03;6147309;23;20017;-81
2021/08/05 09:19:13;;;;;;;4.70;3.05;;;;;;;34.25;31.22;98668.13;6124163;23;20022;-79
2021/08/05 09:22:03;;;;;;;7.50;3.60;;;;;;;33.90;31.18;98686.75;6123125;23;20159;-83
2021/08/05 09:24:31;;;;;;;4.88;3.50;;;;;;;33.69;31.49;98665.88;6126658;23;20022;-80
2021/08/05 09:27:08;;;;;;;7.63;3.22;;;;;;;33.86;30.93;98680.16;6123013;23;20017;-85
2021/08/05 09:30:24;;;;;;;10.65;3.30;;;;;;;34.12;30.58;98689.06;6097141;23;20021;-81
2021/08/05 09:33:22;;;;;;;7.90;3.88;;;;;;;34.20;30.06;98677.34;6126251;23;20060;-80
2021/08/05 09:35:58;;;;;;;6.15;3.20;;;;;;;33.73;30.72;98672.50;6109139;23;20457;-81
2021/08/05 09:38:27;;;;;;;9.13;3.47;;;;;;;33.63;31.25;98681.75;6124336;23;20044;-77
2021/08/05 09:41:10;;;;;;;9.40;3.60;;;;;;;33.81;31.26;98689.34;6105370;23;20029;-80
2021/08/05 09:43:39;;;;;;;10.80;3.60;;;;;;;33.90;31.22;98678.44;6132959;23;20020;-78
2021/08/05 09:46:15;;;;;;;10.18;3.85;;;;;;;33.99;31.07;98682.25;6158957;23;20027;-80
2021/08/05 09:48:45;;;;;;;5.35;3.58;;;;;;;33.94;30.94;98679.50;6098754;23;20028;-79
2021/08/05 09:51:14;;;;;;;7.47;4.43;;;;;;;34.44;30.74;98699.53;6166481;23;20043;-78
2021/08/05 09:53:59;;;;;;;;;;;;;;;34.77;30.18;98695.00;6183437;23;20491;-77
2021/08/05 09:56:35;;;;;;;9.77;3.80;;;;;;;35.38;29.58;98689.72;6183283;22;20447;-78
2021/08/05 09:59:13;;;;;;;10.68;3.72;;;;;;;34.69;29.76;98683.75;6161830;23;20026;-80
2021/08/05 10:02:05;;;;;;;9.68;3.45;;;;;;;34.34;29.96;98677.47;6135400;23;20098;-79
2021/08/05 10:04:33;;;;;;;4.10;3.33;;;;;;;34.27;29.99;98677.00;6285860;22;20069;-79
2021/08/05 10:07:07;;;;;;;6.93;3.65;;;;;;;34.48;29.97;98683.94;6163222;23;20028;-79
2021/08/05 10:09:40;;;;;;;10.57;4.25;;;;;;;34.48;30.37;98685.91;6182481;23;20360;-78
2021/08/05 10:12:13;;;;;;;12.35;3.90;;;;;;;34.48;29.81;98691.44;6138612;23;20069;-79
2021/08/05 10:14:43;;;;;;;10.50;3.50;;;;;;;35.07;29.36;98690.19;6157507;23;20400;-80
2021/08/05 10:17:14;;;;;;;10.52;3.60;;;;;;;35.68;27.70;98685.66;6159601;23;20013;-79
2021/08/05 10:19:42;;;;;;;;;;;;;;;36.50;27.94;98696.19;6109685;23;20024;-80
2021/08/05 10:22:25;;;;;;;6.15;3.95;;;;;;;36.22;27.61;98687.78;6134451;23;20273;-84
2021/08/05 10:25:02;;;;;;;11.23;3.58;;;;;;;35.96;28.36;98684.63;6189091;23;20021;-79
2021/08/05 10:27:36;;;;;;;8.98;3.70;;;;;;;36.19;27.92;98676.44;6142920;23;20500;-79
2021/08/05 10:30:13;;;;;;;12.10;4.00;;;;;;;36.67;27.34;98667.69;6136920;23;20100;-80
2021/08/05 10:32:48;;;;;;;10.98;4.80;;;;;;;36.88;26.89;98674.50;6086362;23;20012;-81
2021/08/05 10:35:18;;;;;;;12.90;4.03;;;;;;;37.50;26.56;98667.53;6133174;23;20104;-80
2021/08/05 10:37:49;;;;;;;6.28;3.67;;;;;;;37.61;26.14;98678.16;6134230;23;20376;-80
2021/08/05 10:40:30;;;;;;;6.78;4.78;;;;;;;37.13;26.52;98675.91;6163635;23;20155;-79
2021/08/05 10:43:17;;;;;;;11.70;6.47;;;;;;;36.36;27.22;98675.84;6227780;22;20021;-79
2021/08/05 10:45:50;;;;;;;10.05;5.20;;;;;;;36.65;27.10;98695.06;6128203;23;20467;-81
2021/08/05 10:48:31;;;;;;;7.88;4.25;;;;;;;37.04;26.05;98671.38;6106605;23;20017;-79
2021/08/05 10:51:18;;;;;;;12.00;5.18;;;;;;;36.33;26.80;98687.56;6130324;23;20024;-82
2021/08/05 10:54:03;;;;;;;17.00;3.80;;;;;;;35.34;27.90;98695.06;6137611;23;20057;-82
2021/08/05 10:57:23;;;;;;;8.77;4.10;;;;;;;35.28;28.87;98685.16;6116861;23;20336;-79
2021/08/05 11:00:04;;;;;;;4.65;3.70;;;;;;;34.84;29.38;98704.94;6129431;23;20452;-81
2021/08/05 11:02:50;;;;;;;10.10;4.40;;;;;;;35.55;28.47;98694.78;6154509;23;20066;-79
2021/08/05 11:05:43;;;;;;;26.58;4.00;;;;;;;35.61;28.20;98685.22;6152941;23;20426;-80
2021/08/05 11:08:12;;;;;;;10.45;3.97;;;;;;;35.95;27.86;98682.94;6153268;23;20158;-79
2021/08/05 11:10:38;;;;;;;11.02;4.20;;;;;;;35.77;28.04;98669.97;6152716;23;20471;-80
2021/08/05 11:13:32;;;;;;;7.72;3.97;;;;;;;36.09;27.87;98676.63;6105502;23;20017;-84
2021/08/05 11:16:01;;;;;;;8.23;4.10;;;;;;;36.49;27.05;98679.81;6136519;23;20013;-81
2021/08/05 11:18:29;;;;;;;8.20;3.83;;;;;;;36.56;26.85;98655.13;6105172;23;20025;-78
2021/08/05 11:20:56;;;;;;;13.75;4.60;;;;;;;37.09;26.10;98677.69;6105675;23;20433;-81
2021/08/05 11:23:34;;;;;;;12.82;3.97;;;;;;;37.48;25.47;98692.16;6152651;23;20081;-79
2021/08/05 11:26:09;;;;;;;4.65;3.55;;;;;;;36.98;25.74;98667.09;6153431;23;20031;-78
2021/08/05 11:28:55;;;;;;;8.43;3.92;;;;;;;37.60;24.92;98654.16;6177338;23;20021;-80
2021/08/05 11:31:34;;;;;;;10.00;3.70;;;;;;;36.93;25.70;98652.06;6129478;23;20448;-80
2021/08/05 11:34:04;;;;;;;10.75;3.90;;;;;;;36.74;25.71;98667.28;6128181;23;20050;-80
2021/08/05 11:36:34;;;;;;;9.57;3.50;;;;;;;36.56;26.06;98685.75;6153152;23;20751;-79
2021/08/05 11:39:19;;;;;;;8.50;3.40;;;;;;;37.35;24.86;98663.97;6152754;23;20483;-81
2021/08/05 11:41:49;;;;;;;5.43;3.22;;;;;;;38.21;23.94;98676.88;6131025;23;20021;-78
2021/08/05 11:44:28;;;;;;;10.80;3.60;;;;;;;38.79;23.87;98681.41;6177666;23;20017;-78
2021/08/05 11:47:01;;;;;;;4.07;3.20;;;;;;;39.25;23.08;98674.44;6180377;23;20099;-77
2021/08/05 11:49:58;;;;;;;6.80;3.30;;;;;;;39.14;23.00;98678.66;6178877;23;20447;-79
2021/08/05 11:52:26;;;;;;;15.98;3.30;;;;;;;39.18;22.52;98679.66;6178628;23;20013;-79
2021/08/05 11:55:11;;;;;;;14.93;3.65;;;;;;;38.67;22.96;98684.00;6178800;23;20054;-79
2021/08/05 11:57:48;;;;;;;5.82;3.38;;;;;;;37.58;24.31;98689.13;6154168;23;20062;-79
2021/08/05 12:00:19;;;;;;;10.15;3.10;;;;;;;37.51;24.60;98680.38;6129663;23;20021;-79
2021/08/05 12:02:49;;;;;;;7.40;3.20;;;;;;;37.71;24.53;98665.06;6154540;23;20021;-79
2021/08/05 12:05:16;;;;;;;10.35;3.30;;;;;;;37.98;24.35;98676.09;6180316;23;20514;-79
2021/08/05 12:07:49;;;;;;;12.18;3.33;;;;;;;37.15;24.74;98658.88;6181076;23;20444;-78
2021/08/05 12:10:22;;;;;;;7.57;3.20;;;;;;;36.27;25.86;98681.31;6130665;23;20013;-80
2021/08/05 12:12:55;;;;;;;6.65;3.20;;;;;;;35.67;26.67;98670.94;6179336;23;20043;-79
2021/08/05 12:15:28;;;;;;;9.02;3.47;;;;;;;35.36;27.13;98675.34;6180794;23;20471;-79
2021/08/05 12:17:55;;;;;;;12.77;3.30;;;;;;;35.13;27.42;98666.78;6179119;23;20042;-80
2021/08/05 12:20:26;;;;;;;5.32;3.20;;;;;;;34.65;27.92;98652.16;6179381;23;20035;-82
2021/08/05 12:22:54;;;;;;;5.13;3.20;;;;;;;34.61;28.37;98659.41;6156370;23;20075;-78
2021/08/05 12:25:42;;;;;;;7.05;3.33;;;;;;;33.95;29.43;98653.44;6179895;23;20120;-79
2021/08/05 12:28:16;;;;;;;5.53;3.67;;;;;;;33.41;30.15;98659.16;6109591;23;20044;-81
2021/08/05 12:31:07;;;;;;;11.90;3.78;;;;;;;32.99;31.05;98647.53;6138962;23;20445;-79